sensor_id;sensor_type;location;lat;lon;timestamp;P1;durP1;ratioP1;P2;durP2;ratioP2
74849;SDS011;63397;47.480;19.238;2023-07-13T00:02:29;10.50;;;5.03;;
74849;SDS011;63397;47.480;19.238;2023-07-13T00:05:32;8.77;;;4.75;;
74849;SDS011;63397;47.480;19.238;2023-07-13T00:08:34;8.53;;;4.17;;
74849;SDS011;63397;47.480;19.238;2023-07-13T00:11:37;7.90;;;4.10;;
74849;SDS011;63397;47.480;19.238;2023-07-13T00:14:39;8.02;;;4.00;;
74849;SDS011;63397;47.480;19.238;2023-07-13T00:17:42;6.82;;;3.22;;
74849;SDS011;63397;47.480;19.238;2023-07-13T00:20:46;8.35;;;3.50;;
74849;SDS011;63397;47.480;19.238;2023-07-13T00:23:49;5.90;;;3.20;;
74849;SDS011;63397;47.480;19.238;2023-07-13T00:26:51;8.07;;;3.60;;
74849;SDS011;63397;47.480;19.238;2023-07-13T00:29:53;7.32;;;3.40;;
74849;SDS011;63397;47.480;19.238;2023-07-13T00:32:55;10.77;;;3.63;;
74849;SDS011;63397;47.480;19.238;2023-07-13T00:36:19;7.35;;;3.83;;
74849;SDS011;63397;47.480;19.238;2023-07-13T00:39:22;7.53;;;3.77;;
74849;SDS011;63397;47.480;19.238;2023-07-13T00:42:24;5.28;;;2.92;;
74849;SDS011;63397;47.480;19.238;2023-07-13T00:48:31;6.65;;;2.88;;
74849;SDS011;63397;47.480;19.238;2023-07-13T00:54:55;5.10;;;2.70;;
74849;SDS011;63397;47.480;19.238;2023-07-13T00:57:58;7.28;;;2.80;;
74849;SDS011;63397;47.480;19.238;2023-07-13T01:01:00;5.30;;;2.83;;
74849;SDS011;63397;47.480;19.238;2023-07-13T01:04:03;6.70;;;3.00;;
74849;SDS011;63397;47.480;19.238;2023-07-13T01:07:06;5.60;;;2.90;;
74849;SDS011;63397;47.480;19.238;2023-07-13T01:10:09;6.93;;;3.00;;
74849;SDS011;63397;47.480;19.238;2023-07-13T01:13:11;7.60;;;3.47;;
74849;SDS011;63397;47.480;19.238;2023-07-13T01:16:35;7.22;;;3.03;;
74849;SDS011;63397;47.480;19.238;2023-07-13T01:19:37;5.78;;;3.08;;
74849;SDS011;63397;47.480;19.238;2023-07-13T01:22:41;6.22;;;2.97;;
74849;SDS011;63397;47.480;19.238;2023-07-13T01:25:43;8.23;;;2.90;;
74849;SDS011;63397;47.480;19.238;2023-07-13T01:28:45;6.63;;;3.05;;
74849;SDS011;63397;47.480;19.238;2023-07-13T01:31:48;5.85;;;3.00;;
74849;SDS011;63397;47.480;19.238;2023-07-13T01:34:50;5.93;;;2.83;;
74849;SDS011;63397;47.480;19.238;2023-07-13T01:37:56;5.30;;;3.00;;
74849;SDS011;63397;47.480;19.238;2023-07-13T01:40:59;6.37;;;3.10;;
74849;SDS011;63397;47.480;19.238;2023-07-13T01:44:01;7.15;;;2.90;;
74849;SDS011;63397;47.480;19.238;2023-07-13T01:47:03;7.22;;;3.00;;
74849;SDS011;63397;47.480;19.238;2023-07-13T01:50:06;6.22;;;3.03;;
74849;SDS011;63397;47.480;19.238;2023-07-13T01:53:08;6.72;;;3.05;;
74849;SDS011;63397;47.480;19.238;2023-07-13T01:56:11;5.13;;;2.93;;
74849;SDS011;63397;47.480;19.238;2023-07-13T01:59:13;8.27;;;3.20;;
74849;SDS011;63397;47.480;19.238;2023-07-13T02:02:16;6.15;;;3.03;;
74849;SDS011;63397;47.480;19.238;2023-07-13T02:05:19;5.68;;;3.10;;
74849;SDS011;63397;47.480;19.238;2023-07-13T02:08:21;6.95;;;3.17;;
74849;SDS011;63397;47.480;19.238;2023-07-13T02:11:24;5.93;;;3.03;;
74849;SDS011;63397;47.480;19.238;2023-07-13T02:14:27;6.68;;;3.20;;
74849;SDS011;63397;47.480;19.238;2023-07-13T02:17:29;7.25;;;3.05;;
74849;SDS011;63397;47.480;19.238;2023-07-13T02:20:31;7.60;;;3.30;;
74849;SDS011;63397;47.480;19.238;2023-07-13T02:23:34;6.13;;;3.00;;
74849;SDS011;63397;47.480;19.238;2023-07-13T02:26:36;7.53;;;3.10;;
74849;SDS011;63397;47.480;19.238;2023-07-13T02:29:38;6.22;;;2.70;;
74849;SDS011;63397;47.480;19.238;2023-07-13T02:32:40;6.18;;;2.85;;
74849;SDS011;63397;47.480;19.238;2023-07-13T02:35:43;8.13;;;3.30;;
74849;SDS011;63397;47.480;19.238;2023-07-13T02:38:45;6.22;;;2.88;;
74849;SDS011;63397;47.480;19.238;2023-07-13T02:41:47;6.23;;;3.10;;
74849;SDS011;63397;47.480;19.238;2023-07-13T02:44:50;6.07;;;2.72;;
74849;SDS011;63397;47.480;19.238;2023-07-13T02:47:53;8.15;;;3.22;;
74849;SDS011;63397;47.480;19.238;2023-07-13T02:50:55;8.00;;;3.08;;
74849;SDS011;63397;47.480;19.238;2023-07-13T02:53:57;8.85;;;3.10;;
74849;SDS011;63397;47.480;19.238;2023-07-13T02:57:00;7.73;;;2.80;;
74849;SDS011;63397;47.480;19.238;2023-07-13T03:00:02;10.55;;;3.13;;
74849;SDS011;63397;47.480;19.238;2023-07-13T03:03:07;7.20;;;3.10;;
74849;SDS011;63397;47.480;19.238;2023-07-13T03:06:09;8.30;;;3.20;;
74849;SDS011;63397;47.480;19.238;2023-07-13T03:09:20;5.72;;;2.60;;
74849;SDS011;63397;47.480;19.238;2023-07-13T03:12:27;4.67;;;2.40;;
74849;SDS011;63397;47.480;19.238;2023-07-13T03:15:29;5.53;;;2.30;;
74849;SDS011;63397;47.480;19.238;2023-07-13T03:18:33;6.97;;;2.55;;
74849;SDS011;63397;47.480;19.238;2023-07-13T03:21:39;6.40;;;2.20;;
74849;SDS011;63397;47.480;19.238;2023-07-13T03:24:41;5.72;;;2.05;;
74849;SDS011;63397;47.480;19.238;2023-07-13T03:27:44;5.87;;;2.10;;
74849;SDS011;63397;47.480;19.238;2023-07-13T03:30:46;6.40;;;2.30;;
74849;SDS011;63397;47.480;19.238;2023-07-13T03:33:49;7.82;;;2.33;;
74849;SDS011;63397;47.480;19.238;2023-07-13T03:36:55;5.78;;;2.28;;
74849;SDS011;63397;47.480;19.238;2023-07-13T03:39:58;6.78;;;2.25;;
74849;SDS011;63397;47.480;19.238;2023-07-13T03:43:01;6.50;;;2.43;;
74849;SDS011;63397;47.480;19.238;2023-07-13T03:46:05;5.85;;;2.60;;
74849;SDS011;63397;47.480;19.238;2023-07-13T03:49:08;5.68;;;2.67;;
74849;SDS011;63397;47.480;19.238;2023-07-13T03:52:10;5.70;;;2.22;;
74849;SDS011;63397;47.480;19.238;2023-07-13T03:55:12;7.43;;;2.40;;
74849;SDS011;63397;47.480;19.238;2023-07-13T03:58:25;5.40;;;2.50;;
74849;SDS011;63397;47.480;19.238;2023-07-13T04:01:31;5.57;;;2.80;;
74849;SDS011;63397;47.480;19.238;2023-07-13T04:04:34;5.82;;;2.50;;
74849;SDS011;63397;47.480;19.238;2023-07-13T04:07:36;6.70;;;2.72;;
74849;SDS011;63397;47.480;19.238;2023-07-13T04:10:38;5.35;;;2.55;;
74849;SDS011;63397;47.480;19.238;2023-07-13T04:13:40;6.77;;;2.33;;
74849;SDS011;63397;47.480;19.238;2023-07-13T04:16:43;6.82;;;2.35;;
74849;SDS011;63397;47.480;19.238;2023-07-13T04:19:45;8.52;;;2.75;;
74849;SDS011;63397;47.480;19.238;2023-07-13T04:22:48;4.80;;;2.63;;
74849;SDS011;63397;47.480;19.238;2023-07-13T04:25:51;7.05;;;2.70;;
74849;SDS011;63397;47.480;19.238;2023-07-13T04:28:57;6.70;;;2.60;;
74849;SDS011;63397;47.480;19.238;2023-07-13T04:31:59;6.60;;;2.95;;
74849;SDS011;63397;47.480;19.238;2023-07-13T04:35:01;6.30;;;3.00;;
74849;SDS011;63397;47.480;19.238;2023-07-13T04:38:04;6.63;;;2.90;;
74849;SDS011;63397;47.480;19.238;2023-07-13T04:41:06;7.72;;;3.10;;
74849;SDS011;63397;47.480;19.238;2023-07-13T04:44:09;5.07;;;2.80;;
74849;SDS011;63397;47.480;19.238;2023-07-13T04:47:11;8.25;;;3.33;;
74849;SDS011;63397;47.480;19.238;2023-07-13T04:50:14;6.07;;;2.75;;
74849;SDS011;63397;47.480;19.238;2023-07-13T04:53:23;7.13;;;3.05;;
74849;SDS011;63397;47.480;19.238;2023-07-13T04:56:25;9.30;;;3.38;;
74849;SDS011;63397;47.480;19.238;2023-07-13T04:59:28;7.17;;;3.23;;
74849;SDS011;63397;47.480;19.238;2023-07-13T05:02:30;8.07;;;3.63;;
74849;SDS011;63397;47.480;19.238;2023-07-13T05:05:34;6.88;;;3.58;;
74849;SDS011;63397;47.480;19.238;2023-07-13T05:08:36;8.18;;;3.80;;
74849;SDS011;63397;47.480;19.238;2023-07-13T05:11:38;8.57;;;3.80;;
74849;SDS011;63397;47.480;19.238;2023-07-13T05:14:41;10.40;;;4.47;;
74849;SDS011;63397;47.480;19.238;2023-07-13T05:17:43;9.73;;;4.00;;
74849;SDS011;63397;47.480;19.238;2023-07-13T05:20:46;10.20;;;5.05;;
74849;SDS011;63397;47.480;19.238;2023-07-13T05:23:48;10.63;;;5.00;;
74849;SDS011;63397;47.480;19.238;2023-07-13T05:26:50;13.95;;;5.60;;
74849;SDS011;63397;47.480;19.238;2023-07-13T05:29:53;10.10;;;3.87;;
74849;SDS011;63397;47.480;19.238;2023-07-13T05:32:55;11.05;;;4.10;;
74849;SDS011;63397;47.480;19.238;2023-07-13T05:35:57;7.75;;;3.50;;
74849;SDS011;63397;47.480;19.238;2023-07-13T05:39:03;6.82;;;2.75;;
74849;SDS011;63397;47.480;19.238;2023-07-13T05:42:05;6.45;;;2.67;;
74849;SDS011;63397;47.480;19.238;2023-07-13T05:45:08;5.87;;;2.57;;
74849;SDS011;63397;47.480;19.238;2023-07-13T05:48:10;6.50;;;2.35;;
74849;SDS011;63397;47.480;19.238;2023-07-13T05:51:13;6.60;;;2.95;;
74849;SDS011;63397;47.480;19.238;2023-07-13T05:54:15;4.82;;;2.45;;
74849;SDS011;63397;47.480;19.238;2023-07-13T05:57:18;7.22;;;2.72;;
74849;SDS011;63397;47.480;19.238;2023-07-13T06:00:20;5.43;;;3.13;;
74849;SDS011;63397;47.480;19.238;2023-07-13T06:03:22;5.15;;;2.50;;
74849;SDS011;63397;47.480;19.238;2023-07-13T06:06:25;5.20;;;2.47;;
74849;SDS011;63397;47.480;19.238;2023-07-13T06:09:27;5.55;;;2.10;;
74849;SDS011;63397;47.480;19.238;2023-07-13T06:12:29;5.63;;;2.47;;
74849;SDS011;63397;47.480;19.238;2023-07-13T06:15:32;4.73;;;2.10;;
74849;SDS011;63397;47.480;19.238;2023-07-13T06:18:34;5.95;;;2.15;;
74849;SDS011;63397;47.480;19.238;2023-07-13T06:21:37;5.88;;;2.05;;
74849;SDS011;63397;47.480;19.238;2023-07-13T06:24:39;4.45;;;1.73;;
74849;SDS011;63397;47.480;19.238;2023-07-13T06:27:41;4.45;;;1.80;;
74849;SDS011;63397;47.480;19.238;2023-07-13T06:30:44;4.10;;;1.83;;
74849;SDS011;63397;47.480;19.238;2023-07-13T06:33:46;4.25;;;2.08;;
74849;SDS011;63397;47.480;19.238;2023-07-13T06:36:48;5.95;;;1.83;;
74849;SDS011;63397;47.480;19.238;2023-07-13T06:39:51;4.50;;;2.00;;
74849;SDS011;63397;47.480;19.238;2023-07-13T06:42:53;5.38;;;1.65;;
74849;SDS011;63397;47.480;19.238;2023-07-13T06:45:55;4.70;;;1.73;;
74849;SDS011;63397;47.480;19.238;2023-07-13T06:48:58;5.10;;;1.50;;
74849;SDS011;63397;47.480;19.238;2023-07-13T06:52:00;4.55;;;2.00;;
74849;SDS011;63397;47.480;19.238;2023-07-13T06:55:03;4.60;;;1.70;;
74849;SDS011;63397;47.480;19.238;2023-07-13T06:58:05;3.72;;;1.60;;
74849;SDS011;63397;47.480;19.238;2023-07-13T07:01:08;3.53;;;1.50;;
74849;SDS011;63397;47.480;19.238;2023-07-13T07:04:11;4.70;;;1.60;;
74849;SDS011;63397;47.480;19.238;2023-07-13T07:07:14;3.50;;;1.60;;
74849;SDS011;63397;47.480;19.238;2023-07-13T07:10:16;4.47;;;1.73;;
74849;SDS011;63397;47.480;19.238;2023-07-13T07:13:19;4.90;;;1.95;;
74849;SDS011;63397;47.480;19.238;2023-07-13T07:16:22;5.43;;;1.80;;
74849;SDS011;63397;47.480;19.238;2023-07-13T07:19:24;5.65;;;1.98;;
74849;SDS011;63397;47.480;19.238;2023-07-13T07:22:26;4.15;;;2.00;;
74849;SDS011;63397;47.480;19.238;2023-07-13T07:25:29;4.55;;;1.90;;
74849;SDS011;63397;47.480;19.238;2023-07-13T07:28:33;4.22;;;2.17;;
74849;SDS011;63397;47.480;19.238;2023-07-13T07:31:39;4.10;;;1.60;;
74849;SDS011;63397;47.480;19.238;2023-07-13T07:34:44;4.53;;;2.13;;
74849;SDS011;63397;47.480;19.238;2023-07-13T07:37:46;3.25;;;1.90;;
74849;SDS011;63397;47.480;19.238;2023-07-13T07:40:53;3.42;;;1.98;;
74849;SDS011;63397;47.480;19.238;2023-07-13T07:43:58;5.15;;;2.10;;
74849;SDS011;63397;47.480;19.238;2023-07-13T07:47:01;3.80;;;1.90;;
74849;SDS011;63397;47.480;19.238;2023-07-13T07:50:03;4.20;;;1.95;;
74849;SDS011;63397;47.480;19.238;2023-07-13T07:53:06;3.20;;;1.70;;
74849;SDS011;63397;47.480;19.238;2023-07-13T07:56:12;4.00;;;1.60;;
74849;SDS011;63397;47.480;19.238;2023-07-13T07:59:18;3.42;;;1.80;;
74849;SDS011;63397;47.480;19.238;2023-07-13T08:02:24;4.77;;;1.93;;
74849;SDS011;63397;47.480;19.238;2023-07-13T08:05:29;3.60;;;1.88;;
74849;SDS011;63397;47.480;19.238;2023-07-13T08:08:34;4.80;;;1.80;;
74849;SDS011;63397;47.480;19.238;2023-07-13T08:11:37;4.00;;;1.98;;
74849;SDS011;63397;47.480;19.238;2023-07-13T08:14:42;4.07;;;1.95;;
74849;SDS011;63397;47.480;19.238;2023-07-13T08:17:54;4.27;;;1.73;;
74849;SDS011;63397;47.480;19.238;2023-07-13T08:21:02;5.28;;;1.98;;
74849;SDS011;63397;47.480;19.238;2023-07-13T08:24:04;3.65;;;1.88;;
74849;SDS011;63397;47.480;19.238;2023-07-13T08:27:07;6.75;;;2.05;;
74849;SDS011;63397;47.480;19.238;2023-07-13T08:30:09;3.78;;;2.10;;
74849;SDS011;63397;47.480;19.238;2023-07-13T08:33:12;3.93;;;2.00;;
74849;SDS011;63397;47.480;19.238;2023-07-13T08:36:14;3.75;;;2.10;;
74849;SDS011;63397;47.480;19.238;2023-07-13T08:39:16;4.90;;;2.13;;
74849;SDS011;63397;47.480;19.238;2023-07-13T08:46:27;5.10;;;2.20;;
74849;SDS011;63397;47.480;19.238;2023-07-13T08:48:57;5.07;;;1.97;;
74849;SDS011;63397;47.480;19.238;2023-07-13T08:52:05;3.65;;;2.00;;
74849;SDS011;63397;47.480;19.238;2023-07-13T08:55:13;5.10;;;2.10;;
74849;SDS011;63397;47.480;19.238;2023-07-13T08:58:16;8.23;;;2.35;;
74849;SDS011;63397;47.480;19.238;2023-07-13T09:01:31;4.15;;;2.33;;
74849;SDS011;63397;47.480;19.238;2023-07-13T09:04:42;4.67;;;2.27;;
74849;SDS011;63397;47.480;19.238;2023-07-13T09:10:52;4.25;;;2.38;;
74849;SDS011;63397;47.480;19.238;2023-07-13T09:14:16;5.90;;;2.30;;
74849;SDS011;63397;47.480;19.238;2023-07-13T09:17:24;5.13;;;2.47;;
74849;SDS011;63397;47.480;19.238;2023-07-13T09:20:31;3.80;;;2.30;;
74849;SDS011;63397;47.480;19.238;2023-07-13T09:23:34;4.85;;;2.65;;
74849;SDS011;63397;47.480;19.238;2023-07-13T09:26:37;5.70;;;1.90;;
74849;SDS011;63397;47.480;19.238;2023-07-13T09:29:41;5.40;;;2.38;;
74849;SDS011;63397;47.480;19.238;2023-07-13T09:32:47;5.60;;;2.30;;
74849;SDS011;63397;47.480;19.238;2023-07-13T09:35:51;4.37;;;2.40;;
74849;SDS011;63397;47.480;19.238;2023-07-13T09:45:01;4.75;;;2.58;;
74849;SDS011;63397;47.480;19.238;2023-07-13T09:48:12;5.63;;;2.40;;
74849;SDS011;63397;47.480;19.238;2023-07-13T09:51:15;4.07;;;2.43;;
74849;SDS011;63397;47.480;19.238;2023-07-13T09:54:19;5.15;;;2.28;;
74849;SDS011;63397;47.480;19.238;2023-07-13T09:57:23;4.75;;;2.40;;
74849;SDS011;63397;47.480;19.238;2023-07-13T10:00:38;4.30;;;2.38;;
74849;SDS011;63397;47.480;19.238;2023-07-13T10:03:52;5.63;;;2.58;;
74849;SDS011;63397;47.480;19.238;2023-07-13T10:07:08;3.70;;;2.10;;
74849;SDS011;63397;47.480;19.238;2023-07-13T10:10:29;7.93;;;2.30;;
74849;SDS011;63397;47.480;19.238;2023-07-13T10:13:33;5.30;;;2.80;;
74849;SDS011;63397;47.480;19.238;2023-07-13T10:16:38;5.25;;;2.40;;
74849;SDS011;63397;47.480;19.238;2023-07-13T10:19:41;3.95;;;2.58;;
74849;SDS011;63397;47.480;19.238;2023-07-13T10:22:56;4.13;;;2.70;;
74849;SDS011;63397;47.480;19.238;2023-07-13T10:26:01;6.03;;;2.80;;
74849;SDS011;63397;47.480;19.238;2023-07-13T10:29:04;5.43;;;2.90;;
74849;SDS011;63397;47.480;19.238;2023-07-13T10:32:09;5.88;;;3.00;;
74849;SDS011;63397;47.480;19.238;2023-07-13T10:35:14;5.40;;;3.35;;
74849;SDS011;63397;47.480;19.238;2023-07-13T10:38:21;3.90;;;2.30;;
74849;SDS011;63397;47.480;19.238;2023-07-13T10:41:26;5.45;;;2.47;;
74849;SDS011;63397;47.480;19.238;2023-07-13T10:44:30;4.50;;;2.65;;
74849;SDS011;63397;47.480;19.238;2023-07-13T10:47:33;5.15;;;2.83;;
74849;SDS011;63397;47.480;19.238;2023-07-13T10:50:35;4.65;;;3.00;;
74849;SDS011;63397;47.480;19.238;2023-07-13T10:53:40;6.07;;;2.50;;
74849;SDS011;63397;47.480;19.238;2023-07-13T10:56:42;5.65;;;2.55;;
74849;SDS011;63397;47.480;19.238;2023-07-13T11:03:10;4.57;;;2.72;;
74849;SDS011;63397;47.480;19.238;2023-07-13T11:09:37;3.97;;;2.67;;
74849;SDS011;63397;47.480;19.238;2023-07-13T11:15:49;4.07;;;2.50;;
74849;SDS011;63397;47.480;19.238;2023-07-13T11:18:52;5.18;;;2.70;;
74849;SDS011;63397;47.480;19.238;2023-07-13T11:25:20;3.90;;;2.50;;
74849;SDS011;63397;47.480;19.238;2023-07-13T11:28:24;4.13;;;2.20;;
74849;SDS011;63397;47.480;19.238;2023-07-13T11:31:27;3.30;;;2.35;;
74849;SDS011;63397;47.480;19.238;2023-07-13T11:34:36;4.90;;;2.30;;
74849;SDS011;63397;47.480;19.238;2023-07-13T11:37:38;3.65;;;2.22;;
74849;SDS011;63397;47.480;19.238;2023-07-13T11:40:41;4.97;;;2.20;;
74849;SDS011;63397;47.480;19.238;2023-07-13T11:43:45;4.20;;;2.22;;
74849;SDS011;63397;47.480;19.238;2023-07-13T11:46:51;3.42;;;1.92;;
74849;SDS011;63397;47.480;19.238;2023-07-13T11:49:56;3.45;;;1.70;;
74849;SDS011;63397;47.480;19.238;2023-07-13T11:52:59;3.15;;;1.90;;
74849;SDS011;63397;47.480;19.238;2023-07-13T11:56:02;3.70;;;1.90;;
74849;SDS011;63397;47.480;19.238;2023-07-13T11:59:06;4.00;;;1.88;;
74849;SDS011;63397;47.480;19.238;2023-07-13T12:02:14;2.72;;;1.70;;
74849;SDS011;63397;47.480;19.238;2023-07-13T12:05:18;4.05;;;1.67;;
74849;SDS011;63397;47.480;19.238;2023-07-13T12:08:22;4.07;;;2.08;;
74849;SDS011;63397;47.480;19.238;2023-07-13T12:11:25;2.93;;;1.60;;
74849;SDS011;63397;47.480;19.238;2023-07-13T12:14:28;3.03;;;1.50;;
74849;SDS011;63397;47.480;19.238;2023-07-13T12:17:30;3.53;;;1.70;;
74849;SDS011;63397;47.480;19.238;2023-07-13T12:20:33;2.60;;;1.63;;
74849;SDS011;63397;47.480;19.238;2023-07-13T12:23:38;3.30;;;1.70;;
74849;SDS011;63397;47.480;19.238;2023-07-13T12:26:41;3.20;;;2.00;;
74849;SDS011;63397;47.480;19.238;2023-07-13T12:29:49;3.45;;;1.73;;
74849;SDS011;63397;47.480;19.238;2023-07-13T12:33:08;4.40;;;1.80;;
74849;SDS011;63397;47.480;19.238;2023-07-13T12:36:12;3.03;;;1.80;;
74849;SDS011;63397;47.480;19.238;2023-07-13T12:39:34;4.22;;;2.00;;
74849;SDS011;63397;47.480;19.238;2023-07-13T12:42:37;3.13;;;1.67;;
74849;SDS011;63397;47.480;19.238;2023-07-13T12:49:05;4.35;;;1.88;;
74849;SDS011;63397;47.480;19.238;2023-07-13T12:52:37;3.63;;;1.85;;
74849;SDS011;63397;47.480;19.238;2023-07-13T12:55:43;3.33;;;1.83;;
74849;SDS011;63397;47.480;19.238;2023-07-13T12:58:46;3.87;;;2.00;;
74849;SDS011;63397;47.480;19.238;2023-07-13T13:01:50;3.42;;;1.98;;
74849;SDS011;63397;47.480;19.238;2023-07-13T13:04:53;4.07;;;2.25;;
74849;SDS011;63397;47.480;19.238;2023-07-13T13:07:57;4.38;;;2.20;;
74849;SDS011;63397;47.480;19.238;2023-07-13T13:11:03;4.43;;;2.30;;
74849;SDS011;63397;47.480;19.238;2023-07-13T13:14:05;4.33;;;2.23;;
74849;SDS011;63397;47.480;19.238;2023-07-13T13:17:43;3.85;;;2.42;;
74849;SDS011;63397;47.480;19.238;2023-07-13T13:20:38;3.92;;;2.20;;
74849;SDS011;63397;47.480;19.238;2023-07-13T13:23:40;4.85;;;2.22;;
74849;SDS011;63397;47.480;19.238;2023-07-13T13:26:42;3.97;;;1.90;;
74849;SDS011;63397;47.480;19.238;2023-07-13T13:29:45;4.70;;;2.30;;
74849;SDS011;63397;47.480;19.238;2023-07-13T13:32:48;4.13;;;2.10;;
74849;SDS011;63397;47.480;19.238;2023-07-13T13:35:50;4.65;;;2.40;;
74849;SDS011;63397;47.480;19.238;2023-07-13T13:38:52;3.60;;;1.90;;
74849;SDS011;63397;47.480;19.238;2023-07-13T13:41:55;4.00;;;2.17;;
74849;SDS011;63397;47.480;19.238;2023-07-13T13:44:57;4.17;;;2.00;;
74849;SDS011;63397;47.480;19.238;2023-07-13T13:48:00;4.07;;;2.00;;
74849;SDS011;63397;47.480;19.238;2023-07-13T13:51:06;3.85;;;2.20;;
74849;SDS011;63397;47.480;19.238;2023-07-13T13:54:12;3.88;;;2.10;;
74849;SDS011;63397;47.480;19.238;2023-07-13T13:57:15;4.20;;;2.25;;
74849;SDS011;63397;47.480;19.238;2023-07-13T14:00:18;4.07;;;2.30;;
74849;SDS011;63397;47.480;19.238;2023-07-13T14:03:21;3.80;;;1.90;;
74849;SDS011;63397;47.480;19.238;2023-07-13T14:06:24;5.10;;;2.38;;
74849;SDS011;63397;47.480;19.238;2023-07-13T14:09:26;4.18;;;2.50;;
74849;SDS011;63397;47.480;19.238;2023-07-13T14:12:28;4.43;;;2.58;;
74849;SDS011;63397;47.480;19.238;2023-07-13T14:15:32;4.80;;;2.23;;
74849;SDS011;63397;47.480;19.238;2023-07-13T14:18:34;4.07;;;2.20;;
74849;SDS011;63397;47.480;19.238;2023-07-13T14:21:37;4.07;;;2.47;;
74849;SDS011;63397;47.480;19.238;2023-07-13T14:24:39;3.90;;;2.33;;
74849;SDS011;63397;47.480;19.238;2023-07-13T14:27:42;4.63;;;2.60;;
74849;SDS011;63397;47.480;19.238;2023-07-13T14:30:44;4.37;;;2.50;;
74849;SDS011;63397;47.480;19.238;2023-07-13T14:33:48;4.80;;;2.50;;
74849;SDS011;63397;47.480;19.238;2023-07-13T14:36:50;4.03;;;2.65;;
74849;SDS011;63397;47.480;19.238;2023-07-13T14:39:53;5.30;;;2.72;;
74849;SDS011;63397;47.480;19.238;2023-07-13T14:42:56;5.53;;;2.20;;
74849;SDS011;63397;47.480;19.238;2023-07-13T14:45:59;4.70;;;2.80;;
74849;SDS011;63397;47.480;19.238;2023-07-13T14:49:03;5.03;;;2.28;;
74849;SDS011;63397;47.480;19.238;2023-07-13T14:52:11;3.88;;;2.38;;
74849;SDS011;63397;47.480;19.238;2023-07-13T14:55:17;4.75;;;2.60;;
74849;SDS011;63397;47.480;19.238;2023-07-13T14:58:20;3.72;;;2.30;;
74849;SDS011;63397;47.480;19.238;2023-07-13T15:01:22;3.97;;;2.33;;
74849;SDS011;63397;47.480;19.238;2023-07-13T15:04:25;4.57;;;2.75;;
74849;SDS011;63397;47.480;19.238;2023-07-13T15:07:27;4.20;;;2.40;;
74849;SDS011;63397;47.480;19.238;2023-07-13T15:10:31;5.82;;;2.47;;
74849;SDS011;63397;47.480;19.238;2023-07-13T15:13:34;4.55;;;2.40;;
74849;SDS011;63397;47.480;19.238;2023-07-13T15:16:37;4.43;;;2.20;;
74849;SDS011;63397;47.480;19.238;2023-07-13T15:19:39;4.55;;;2.10;;
74849;SDS011;63397;47.480;19.238;2023-07-13T15:22:42;3.28;;;2.08;;
74849;SDS011;63397;47.480;19.238;2023-07-13T15:25:44;4.22;;;2.40;;
74849;SDS011;63397;47.480;19.238;2023-07-13T15:28:47;4.57;;;2.47;;
74849;SDS011;63397;47.480;19.238;2023-07-13T15:31:50;3.23;;;2.10;;
74849;SDS011;63397;47.480;19.238;2023-07-13T15:34:52;4.30;;;2.50;;
74849;SDS011;63397;47.480;19.238;2023-07-13T15:37:54;3.95;;;2.25;;
74849;SDS011;63397;47.480;19.238;2023-07-13T15:40:57;3.58;;;2.10;;
74849;SDS011;63397;47.480;19.238;2023-07-13T15:43:59;4.93;;;2.30;;
74849;SDS011;63397;47.480;19.238;2023-07-13T15:47:03;3.63;;;2.10;;
74849;SDS011;63397;47.480;19.238;2023-07-13T15:50:08;3.80;;;2.20;;
74849;SDS011;63397;47.480;19.238;2023-07-13T15:53:21;4.15;;;2.05;;
74849;SDS011;63397;47.480;19.238;2023-07-13T15:56:28;3.45;;;2.08;;
74849;SDS011;63397;47.480;19.238;2023-07-13T15:59:30;5.03;;;2.13;;
74849;SDS011;63397;47.480;19.238;2023-07-13T16:02:33;4.20;;;2.37;;
74849;SDS011;63397;47.480;19.238;2023-07-13T16:05:35;4.20;;;2.63;;
74849;SDS011;63397;47.480;19.238;2023-07-13T16:08:38;4.40;;;2.10;;
74849;SDS011;63397;47.480;19.238;2023-07-13T16:11:42;4.15;;;2.10;;
74849;SDS011;63397;47.480;19.238;2023-07-13T16:14:45;4.50;;;2.50;;
74849;SDS011;63397;47.480;19.238;2023-07-13T16:17:47;5.17;;;2.40;;
74849;SDS011;63397;47.480;19.238;2023-07-13T16:20:50;4.47;;;2.33;;
74849;SDS011;63397;47.480;19.238;2023-07-13T16:23:54;4.40;;;2.63;;
74849;SDS011;63397;47.480;19.238;2023-07-13T16:27:06;4.28;;;2.10;;
74849;SDS011;63397;47.480;19.238;2023-07-13T16:30:30;4.47;;;2.53;;
74849;SDS011;63397;47.480;19.238;2023-07-13T16:33:33;5.77;;;2.10;;
74849;SDS011;63397;47.480;19.238;2023-07-13T16:36:35;4.30;;;2.33;;
74849;SDS011;63397;47.480;19.238;2023-07-13T16:39:40;5.10;;;2.67;;
74849;SDS011;63397;47.480;19.238;2023-07-13T16:42:44;3.90;;;2.03;;
74849;SDS011;63397;47.480;19.238;2023-07-13T16:45:47;4.55;;;2.47;;
74849;SDS011;63397;47.480;19.238;2023-07-13T16:48:53;7.03;;;2.37;;
74849;SDS011;63397;47.480;19.238;2023-07-13T16:51:55;4.22;;;2.30;;
74849;SDS011;63397;47.480;19.238;2023-07-13T16:55:04;4.80;;;2.45;;
74849;SDS011;63397;47.480;19.238;2023-07-13T16:58:08;5.63;;;2.15;;
74849;SDS011;63397;47.480;19.238;2023-07-13T17:01:11;4.07;;;2.20;;
74849;SDS011;63397;47.480;19.238;2023-07-13T17:04:14;3.93;;;2.17;;
74849;SDS011;63397;47.480;19.238;2023-07-13T17:07:18;4.35;;;2.20;;
74849;SDS011;63397;47.480;19.238;2023-07-13T17:10:21;5.10;;;2.42;;
74849;SDS011;63397;47.480;19.238;2023-07-13T17:13:25;4.05;;;2.30;;
74849;SDS011;63397;47.480;19.238;2023-07-13T17:16:28;3.88;;;2.30;;
74849;SDS011;63397;47.480;19.238;2023-07-13T17:19:33;4.30;;;2.63;;
74849;SDS011;63397;47.480;19.238;2023-07-13T17:22:36;4.05;;;2.25;;
74849;SDS011;63397;47.480;19.238;2023-07-13T17:25:39;3.72;;;2.20;;
74849;SDS011;63397;47.480;19.238;2023-07-13T17:28:42;3.95;;;2.35;;
74849;SDS011;63397;47.480;19.238;2023-07-13T17:31:45;4.72;;;2.20;;
74849;SDS011;63397;47.480;19.238;2023-07-13T17:34:48;4.97;;;2.23;;
74849;SDS011;63397;47.480;19.238;2023-07-13T17:37:54;5.10;;;2.40;;
74849;SDS011;63397;47.480;19.238;2023-07-13T17:40:56;5.15;;;2.60;;
74849;SDS011;63397;47.480;19.238;2023-07-13T17:43:59;5.50;;;2.60;;
74849;SDS011;63397;47.480;19.238;2023-07-13T17:47:02;4.88;;;2.40;;
74849;SDS011;63397;47.480;19.238;2023-07-13T17:50:12;4.57;;;2.40;;
74849;SDS011;63397;47.480;19.238;2023-07-13T17:53:15;5.53;;;2.58;;
74849;SDS011;63397;47.480;19.238;2023-07-13T17:56:18;4.78;;;2.42;;
74849;SDS011;63397;47.480;19.238;2023-07-13T17:59:20;4.95;;;2.20;;
74849;SDS011;63397;47.480;19.238;2023-07-13T18:02:24;4.50;;;2.40;;
74849;SDS011;63397;47.480;19.238;2023-07-13T18:05:33;5.07;;;2.30;;
74849;SDS011;63397;47.480;19.238;2023-07-13T18:08:37;4.32;;;2.10;;
74849;SDS011;63397;47.480;19.238;2023-07-13T18:11:40;4.38;;;2.20;;
74849;SDS011;63397;47.480;19.238;2023-07-13T18:14:43;4.45;;;2.30;;
74849;SDS011;63397;47.480;19.238;2023-07-13T18:17:46;6.05;;;2.28;;
74849;SDS011;63397;47.480;19.238;2023-07-13T18:20:49;4.70;;;2.10;;
74849;SDS011;63397;47.480;19.238;2023-07-13T18:23:51;4.13;;;2.00;;
74849;SDS011;63397;47.480;19.238;2023-07-13T18:26:54;4.85;;;2.10;;
74849;SDS011;63397;47.480;19.238;2023-07-13T18:29:56;4.78;;;2.10;;
74849;SDS011;63397;47.480;19.238;2023-07-13T18:32:59;4.22;;;2.17;;
74849;SDS011;63397;47.480;19.238;2023-07-13T18:36:02;4.10;;;1.80;;
74849;SDS011;63397;47.480;19.238;2023-07-13T18:39:10;5.97;;;1.88;;
74849;SDS011;63397;47.480;19.238;2023-07-13T18:42:14;3.78;;;1.98;;
74849;SDS011;63397;47.480;19.238;2023-07-13T18:45:17;4.40;;;1.70;;
74849;SDS011;63397;47.480;19.238;2023-07-13T18:48:20;3.45;;;1.85;;